createdAt,value
2023-04-22T00:02:00.406Z,7.40
2023-04-22T00:05:14.294Z,7.38
2023-04-22T00:08:20.392Z,7.53
2023-04-22T00:11:23.531Z,7.05
2023-04-22T00:14:26.626Z,6.97
2023-04-22T00:17:29.818Z,7.55
2023-04-22T00:20:33.342Z,7.55
2023-04-22T00:23:37.887Z,7.72
2023-04-22T00:26:41.068Z,6.65
2023-04-22T00:29:44.327Z,6.93
2023-04-22T00:32:48.973Z,7.70
2023-04-22T00:35:54.491Z,6.45
2023-04-22T00:39:00.009Z,7.20
2023-04-22T00:42:04.207Z,7.32
2023-04-22T00:45:12.063Z,7.03
2023-04-22T00:48:15.551Z,7.72
2023-04-22T00:51:18.813Z,7.10
2023-04-22T00:54:23.280Z,7.95
2023-04-22T00:57:27.827Z,7.43
2023-04-22T01:00:31.154Z,7.38
2023-04-22T01:03:38.429Z,7.07
2023-04-22T01:06:42.829Z,7.63
2023-04-22T01:09:47.409Z,6.80
2023-04-22T01:12:50.805Z,6.65
2023-04-22T01:15:54.833Z,6.63
2023-04-22T01:18:58.262Z,6.50
2023-04-22T01:22:02.427Z,5.85
2023-04-22T01:25:07.917Z,6.93
2023-04-22T01:28:11.473Z,6.75
2023-04-22T01:31:14.623Z,6.70
2023-04-22T01:34:17.879Z,7.50
2023-04-22T01:37:21.468Z,7.63
2023-04-22T01:40:27.381Z,6.55
2023-04-22T01:43:31.710Z,7.35
2023-04-22T01:46:35.152Z,7.43
2023-04-22T01:49:38.465Z,5.70
2023-04-22T01:52:41.982Z,5.43
2023-04-22T01:55:46.568Z,6.13
2023-04-22T01:58:50.509Z,6.00
2023-04-22T02:01:53.683Z,6.85
2023-04-22T02:04:56.910Z,6.82
2023-04-22T02:08:00.116Z,7.55
2023-04-22T02:11:04.913Z,7.15
2023-04-22T02:14:08.068Z,7.35
2023-04-22T02:17:11.839Z,7.40
2023-04-22T02:20:16.000Z,6.50
2023-04-22T02:23:21.448Z,7.03
2023-04-22T02:26:26.486Z,6.55
2023-04-22T02:29:31.793Z,7.30
2023-04-22T02:32:36.326Z,6.72
2023-04-22T02:35:39.578Z,5.72
2023-04-22T02:38:42.698Z,6.93
2023-04-22T02:41:47.309Z,6.13
2023-04-22T02:44:51.189Z,6.68
2023-04-22T02:47:56.640Z,6.43
2023-04-22T02:50:59.877Z,6.47
2023-04-22T02:54:05.502Z,6.03
2023-04-22T02:57:10.066Z,6.68
2023-04-22T03:00:13.799Z,7.10
2023-04-22T03:03:17.289Z,6.60
2023-04-22T03:06:20.700Z,6.43
2023-04-22T03:09:24.851Z,7.03
2023-04-22T03:12:29.692Z,7.22
2023-04-22T03:15:33.372Z,6.32
2023-04-22T03:18:36.541Z,6.93
2023-04-22T03:21:39.791Z,7.30
2023-04-22T03:24:42.896Z,7.43
2023-04-22T03:27:47.811Z,7.10
2023-04-22T03:34:53.489Z,6.85
2023-04-22T03:37:57.348Z,7.72
2023-04-22T03:41:06.013Z,7.05
2023-04-22T03:44:16.277Z,6.57
2023-04-22T03:47:20.619Z,7.32
2023-04-22T03:50:31.188Z,7.05
2023-04-22T03:53:36.922Z,7.47
2023-04-22T03:56:40.454Z,8.30
2023-04-22T03:59:43.671Z,6.90
2023-04-22T04:02:48.444Z,6.82
2023-04-22T04:05:55.718Z,6.15
2023-04-22T04:08:59.593Z,6.78
2023-04-22T04:12:02.942Z,7.32
2023-04-22T04:15:11.779Z,6.80
2023-04-22T04:18:15.708Z,7.43
2023-04-22T04:21:20.495Z,7.20
2023-04-22T04:30:41.559Z,7.05
2023-04-22T04:33:44.829Z,7.97
2023-04-22T04:36:49.800Z,5.95
2023-04-22T04:39:59.773Z,6.82
2023-04-22T04:43:12.979Z,8.15
2023-04-22T04:46:23.519Z,7.05
2023-04-22T04:49:30.690Z,7.25
2023-04-22T04:52:37.687Z,8.32
2023-04-22T04:55:42.303Z,8.23
2023-04-22T04:58:53.050Z,6.18
2023-04-22T05:02:01.790Z,6.55
2023-04-22T05:05:12.121Z,8.13
2023-04-22T05:08:19.589Z,7.13
2023-04-22T05:11:24.887Z,9.80
2023-04-22T05:14:29.446Z,8.27
2023-04-22T05:17:33.800Z,6.78
2023-04-22T05:20:37.244Z,6.30
2023-04-22T05:23:42.624Z,6.57
2023-04-22T05:26:46.021Z,5.57
2023-04-22T05:29:53.044Z,5.28
2023-04-22T05:33:01.784Z,6.50
2023-04-22T05:36:05.459Z,6.15
2023-04-22T05:39:09.952Z,5.93
2023-04-22T05:42:13.275Z,5.88
2023-04-22T05:45:17.717Z,6.65
2023-04-22T05:48:21.410Z,6.90
2023-04-22T05:51:33.896Z,7.28
2023-04-22T05:54:38.715Z,7.13
2023-04-22T05:57:42.159Z,6.22
2023-04-22T06:00:57.239Z,5.90
2023-04-22T06:04:26.836Z,6.05
2023-04-22T06:07:30.447Z,5.82
2023-04-22T06:10:35.997Z,5.00
2023-04-22T06:13:39.167Z,5.22
2023-04-22T06:16:42.661Z,5.15
2023-04-22T06:19:45.802Z,5.32
2023-04-22T06:22:48.939Z,4.88
2023-04-22T06:25:53.444Z,4.97
2023-04-22T06:28:57.540Z,5.10
2023-04-22T06:32:00.816Z,4.60
2023-04-22T06:35:11.397Z,5.15
2023-04-22T06:38:14.619Z,4.68
2023-04-22T06:41:32.147Z,4.45
2023-04-22T06:44:40.583Z,4.93
2023-04-22T06:48:06.270Z,5.00
2023-04-22T06:51:23.713Z,4.65
2023-04-22T06:54:26.896Z,4.60
2023-04-22T06:57:31.851Z,4.70
2023-04-22T07:00:35.051Z,4.18
2023-04-22T07:03:38.480Z,4.45
2023-04-22T07:06:45.860Z,4.00
2023-04-22T07:09:49.588Z,4.00
2023-04-22T07:12:54.107Z,4.15
2023-04-22T07:15:57.309Z,3.92
2023-04-22T07:19:00.621Z,4.22
2023-04-22T07:22:04.301Z,4.25
2023-04-22T07:25:08.183Z,4.20
2023-04-22T07:28:12.774Z,3.75
2023-04-22T07:31:16.311Z,4.00
2023-04-22T07:34:19.522Z,3.85
2023-04-22T07:37:23.352Z,4.07
2023-04-22T07:40:26.521Z,4.22
2023-04-22T07:43:31.177Z,4.28
2023-04-22T07:46:34.462Z,4.45
2023-04-22T07:49:38.247Z,3.88
2023-04-22T07:52:41.597Z,4.07
2023-04-22T07:55:44.942Z,3.70
2023-04-22T07:58:49.547Z,3.90
2023-04-22T08:01:52.674Z,3.92
2023-04-22T08:04:55.907Z,4.20
2023-04-22T08:08:00.188Z,3.90
2023-04-22T08:11:03.452Z,4.97
2023-04-22T08:14:07.974Z,3.75
2023-04-22T08:17:11.194Z,4.15
2023-04-22T08:20:15.385Z,3.90
2023-04-22T08:23:18.855Z,3.60
2023-04-22T08:26:22.253Z,4.03
2023-04-22T08:29:26.859Z,3.47
2023-04-22T08:32:30.156Z,3.70
2023-04-22T08:35:35.406Z,3.47
2023-04-22T08:38:38.636Z,3.40
2023-04-22T08:41:44.850Z,3.92
2023-04-22T08:44:50.569Z,3.67
2023-04-22T08:47:55.181Z,3.50
2023-04-22T08:50:59.052Z,3.20
2023-04-22T08:54:02.263Z,3.42
2023-04-22T08:57:06.088Z,4.38
2023-04-22T09:00:11.690Z,3.60
2023-04-22T09:03:16.599Z,3.58
2023-04-22T09:06:22.082Z,3.10
2023-04-22T09:09:25.886Z,3.63
2023-04-22T09:12:29.471Z,3.25
2023-04-22T09:15:34.386Z,3.45
2023-04-22T09:18:43.074Z,3.45
2023-04-22T09:21:48.866Z,3.45
2023-04-22T09:24:53.096Z,3.00
2023-04-22T09:27:58.525Z,2.90
2023-04-22T09:34:54.509Z,3.38
2023-04-22T09:37:58.112Z,3.20
2023-04-22T09:41:01.407Z,3.28
2023-04-22T09:44:06.795Z,2.70
2023-04-22T09:47:11.890Z,3.17
2023-04-22T09:50:16.389Z,2.90
2023-04-22T09:53:21.216Z,2.80
2023-04-22T09:56:41.287Z,2.65
2023-04-22T09:59:44.556Z,2.95
2023-04-22T10:02:48.313Z,2.55
2023-04-22T10:05:52.956Z,2.83
2023-04-22T10:08:56.272Z,2.90
2023-04-22T10:11:59.464Z,2.50
2023-04-22T10:15:02.706Z,2.90
2023-04-22T10:18:09.634Z,2.58
2023-04-22T10:21:15.155Z,2.60
2023-04-22T10:24:19.708Z,2.65
2023-04-22T10:27:23.259Z,2.30
2023-04-22T10:30:30.960Z,2.60
2023-04-22T10:36:55.536Z,2.28
2023-04-22T10:40:11.010Z,2.55
2023-04-22T10:43:14.371Z,3.75
2023-04-22T10:46:55.089Z,2.70
2023-04-22T10:50:17.333Z,2.63
2023-04-22T10:53:38.417Z,2.30
2023-04-22T10:57:02.870Z,2.40
2023-04-22T11:00:52.333Z,2.00
2023-04-22T11:04:23.724Z,2.45
2023-04-22T11:07:31.882Z,2.72
2023-04-22T11:10:43.077Z,2.63
2023-04-22T11:13:50.384Z,2.40
2023-04-22T11:16:53.931Z,2.63
2023-04-22T11:19:58.659Z,2.33
2023-04-22T11:23:04.088Z,2.55
2023-04-22T11:26:08.764Z,2.00
2023-04-22T11:29:11.877Z,2.25
2023-04-22T11:32:15.459Z,1.75
2023-04-22T11:35:21.066Z,1.90
2023-04-22T11:38:24.203Z,1.98
2023-04-22T11:41:29.947Z,2.00
2023-04-22T11:44:33.155Z,1.63
2023-04-22T11:47:36.665Z,1.90
2023-04-22T11:50:42.252Z,1.90
2023-04-22T11:53:51.565Z,2.00
2023-04-22T11:56:56.040Z,1.98
2023-04-22T12:00:00.237Z,1.85
2023-04-22T12:03:05.765Z,2.10
2023-04-22T12:06:09.335Z,2.15
2023-04-22T12:09:14.048Z,2.15
2023-04-22T12:12:18.721Z,2.22
2023-04-22T12:15:22.134Z,2.03
2023-04-22T12:18:36.235Z,2.35
2023-04-22T12:21:39.379Z,2.28
2023-04-22T12:24:46.362Z,2.28
2023-04-22T12:27:50.985Z,2.10
2023-04-22T12:30:54.105Z,2.42
2023-04-22T12:33:57.828Z,2.47
2023-04-22T12:37:01.012Z,2.33
2023-04-22T12:40:06.647Z,2.22
2023-04-22T12:43:11.082Z,2.30
2023-04-22T12:46:14.354Z,2.05
2023-04-22T12:49:17.517Z,2.65
2023-04-22T12:52:21.076Z,2.05
2023-04-22T12:55:24.399Z,2.35
2023-04-22T12:58:29.096Z,2.25
2023-04-22T13:01:33.827Z,2.20
2023-04-22T13:04:38.496Z,1.95
2023-04-22T13:07:42.983Z,2.05
2023-04-22T13:10:46.655Z,2.40
2023-04-22T13:13:51.338Z,2.05
2023-04-22T13:16:54.601Z,2.40
2023-04-22T13:19:57.782Z,2.60
2023-04-22T13:23:02.076Z,2.25
2023-04-22T13:26:05.483Z,2.20
2023-04-22T13:29:13.921Z,2.28
2023-04-22T13:32:17.197Z,3.00
2023-04-22T13:35:20.434Z,2.33
2023-04-22T13:38:23.586Z,2.70
2023-04-22T13:41:26.934Z,1.92
2023-04-22T13:44:33.620Z,2.38
2023-04-22T13:47:36.837Z,2.22
2023-04-22T13:50:42.599Z,2.20
2023-04-22T13:53:46.120Z,2.20
2023-04-22T13:56:49.570Z,2.03
2023-04-22T13:59:54.039Z,2.38
2023-04-22T14:02:57.565Z,2.47
2023-04-22T14:06:01.336Z,2.50
2023-04-22T14:09:05.178Z,2.88
2023-04-22T14:12:09.405Z,2.05
2023-04-22T14:15:14.006Z,2.35
2023-04-22T14:18:17.213Z,1.73
2023-04-22T14:21:20.621Z,1.80
2023-04-22T14:24:24.505Z,1.88
2023-04-22T14:27:27.877Z,2.10
2023-04-22T14:30:32.464Z,2.20
2023-04-22T14:33:35.952Z,1.70
2023-04-22T14:36:39.196Z,1.90
2023-04-22T14:39:42.529Z,1.80
2023-04-22T14:42:46.152Z,1.58
2023-04-22T14:45:50.689Z,1.70
2023-04-22T14:48:53.965Z,1.63
2023-04-22T14:51:57.204Z,1.88
2023-04-22T14:55:05.940Z,1.67
2023-04-22T14:58:19.294Z,2.00
2023-04-22T15:01:23.964Z,1.45
2023-04-22T15:04:27.558Z,1.35
2023-04-22T15:07:31.003Z,1.58
2023-04-22T15:10:34.220Z,1.70
2023-04-22T15:13:37.369Z,1.52
2023-04-22T15:16:41.920Z,1.65
2023-04-22T15:19:45.020Z,1.52
2023-04-22T15:22:49.978Z,7.25
2023-04-22T15:25:53.217Z,1.83
2023-04-22T15:28:56.468Z,2.15
2023-04-22T15:34:53.136Z,3.20
2023-04-22T15:37:58.637Z,3.28
2023-04-22T15:41:02.051Z,4.13
2023-04-22T15:44:07.176Z,4.70
2023-04-22T15:47:12.204Z,2.03
2023-04-22T15:50:17.010Z,1.77
2023-04-22T15:53:20.217Z,1.73
2023-04-22T15:56:23.811Z,1.90
2023-04-22T15:59:27.062Z,1.77
2023-04-22T16:02:31.076Z,2.67
2023-04-22T16:05:36.247Z,1.48
2023-04-22T16:08:40.126Z,1.70
2023-04-22T16:11:43.349Z,1.92
2023-04-22T16:14:46.576Z,1.77
2023-04-22T16:17:50.033Z,1.80
2023-04-22T16:20:54.793Z,1.83
2023-04-22T16:23:58.595Z,2.17
2023-04-22T16:27:01.844Z,2.63
2023-04-22T16:30:06.180Z,2.30
2023-04-22T16:33:09.452Z,2.00
2023-04-22T16:36:14.183Z,2.20
2023-04-22T16:39:19.053Z,2.40
2023-04-22T16:42:22.311Z,2.10
2023-04-22T16:45:25.569Z,1.70
2023-04-22T16:48:28.774Z,2.15
2023-04-22T16:51:33.513Z,2.00
2023-04-22T16:54:36.650Z,2.10
2023-04-22T16:57:39.914Z,1.95
2023-04-22T17:00:43.118Z,1.75
2023-04-22T17:03:46.913Z,2.00
2023-04-22T17:06:51.676Z,1.85
2023-04-22T17:09:54.823Z,1.90
2023-04-22T17:12:58.006Z,1.80
2023-04-22T17:16:01.433Z,1.73
2023-04-22T17:19:05.196Z,1.73
2023-04-22T17:22:09.771Z,2.13
2023-04-22T17:25:12.944Z,1.50
2023-04-22T17:28:16.654Z,2.22
2023-04-22T17:31:20.007Z,1.58
2023-04-22T17:34:23.286Z,1.65
2023-04-22T17:37:27.837Z,2.15
2023-04-22T17:40:32.096Z,1.83
2023-04-22T17:43:35.310Z,2.25
2023-04-22T17:46:38.696Z,2.30
2023-04-22T17:49:42.463Z,2.00
2023-04-22T17:52:47.482Z,2.05
2023-04-22T17:55:50.777Z,2.05
2023-04-22T17:58:54.010Z,2.85
2023-04-22T18:01:58.981Z,2.58
2023-04-22T18:05:03.060Z,3.28
2023-04-22T18:08:10.295Z,2.55
2023-04-22T18:11:13.540Z,3.03
2023-04-22T18:14:16.812Z,4.13
2023-04-22T18:17:20.318Z,3.35
2023-04-22T18:20:23.633Z,5.65
2023-04-22T18:23:29.502Z,15.57
2023-04-22T18:26:32.799Z,19.45
2023-04-22T18:29:35.992Z,25.90
2023-04-22T18:32:39.464Z,11.50
2023-04-22T18:35:42.996Z,5.88
2023-04-22T18:38:47.493Z,4.53
2023-04-22T18:41:50.767Z,3.40
2023-04-22T18:44:54.029Z,3.00
2023-04-22T18:47:58.832Z,2.70
2023-04-22T18:51:02.657Z,2.97
2023-04-22T18:54:07.916Z,3.25
2023-04-22T18:57:11.164Z,2.63
2023-04-22T19:00:16.331Z,2.50
2023-04-22T19:03:20.354Z,2.00
2023-04-22T19:06:23.852Z,2.88
2023-04-22T19:09:29.115Z,2.60
2023-04-22T19:12:32.399Z,2.70
2023-04-22T19:15:35.773Z,2.70
2023-04-22T19:18:39.924Z,2.80
2023-04-22T19:21:43.512Z,3.60
2023-04-22T19:24:48.250Z,3.00
2023-04-22T19:27:51.573Z,6.78
2023-04-22T19:30:55.216Z,6.30
2023-04-22T19:33:58.739Z,4.57
2023-04-22T19:37:02.971Z,3.85
2023-04-22T19:40:09.239Z,3.00
2023-04-22T19:43:12.593Z,2.80
2023-04-22T19:46:15.937Z,3.70
2023-04-22T19:49:19.788Z,2.65
2023-04-22T19:52:25.373Z,2.83
2023-04-22T19:55:30.085Z,4.50
2023-04-22T19:58:33.782Z,5.68
2023-04-22T20:01:37.577Z,3.03
2023-04-22T20:04:42.710Z,3.03
2023-04-22T20:07:49.940Z,3.05
2023-04-22T20:10:56.075Z,3.35
2023-04-22T20:14:00.314Z,3.40
2023-04-22T20:17:05.023Z,3.20
2023-04-22T20:20:14.984Z,4.13
2023-04-22T20:23:18.688Z,3.80
2023-04-22T20:26:24.275Z,2.92
2023-04-22T20:29:29.951Z,3.28
2023-04-22T20:32:33.391Z,3.38
2023-04-22T20:35:38.418Z,3.95
2023-04-22T20:38:43.048Z,3.58
2023-04-22T20:41:48.949Z,2.90
2023-04-22T20:44:52.584Z,3.13
2023-04-22T20:47:57.974Z,3.40
2023-04-22T20:51:01.572Z,2.70
2023-04-22T20:54:06.159Z,2.85
2023-04-22T20:57:15.052Z,2.92
2023-04-22T21:00:18.693Z,2.90
2023-04-22T21:03:23.728Z,3.03
2023-04-22T21:06:29.059Z,2.67
2023-04-22T21:09:33.591Z,2.92
2023-04-22T21:12:39.181Z,3.20
2023-04-22T21:15:50.412Z,3.15
2023-04-22T21:18:59.100Z,3.40
2023-04-22T21:22:06.043Z,2.97
2023-04-22T21:25:11.583Z,2.70
2023-04-22T21:28:17.153Z,2.72
2023-04-22T21:34:52.986Z,3.08
2023-04-22T21:37:56.347Z,3.25
2023-04-22T21:40:59.594Z,3.10
2023-04-22T21:44:02.773Z,2.95
2023-04-22T21:47:06.429Z,2.85
2023-04-22T21:50:13.500Z,2.78
2023-04-22T21:53:18.273Z,2.80
2023-04-22T21:56:21.920Z,3.53
2023-04-22T21:59:25.216Z,3.10
2023-04-22T22:02:28.473Z,2.80
2023-04-22T22:05:33.638Z,2.83
2023-04-22T22:08:36.799Z,2.92
2023-04-22T22:11:39.977Z,2.90
2023-04-22T22:14:44.649Z,3.15
2023-04-22T22:17:48.884Z,3.00
2023-04-22T22:20:53.753Z,2.90
2023-04-22T22:23:57.632Z,3.20
2023-04-22T22:27:01.923Z,3.05
2023-04-22T22:30:06.429Z,2.80
2023-04-22T22:33:09.671Z,3.03
2023-04-22T22:36:14.533Z,3.45
2023-04-22T22:39:18.073Z,3.28
2023-04-22T22:42:21.278Z,3.00
2023-04-22T22:45:24.474Z,3.20
2023-04-22T22:48:27.758Z,3.15
2023-04-22T22:51:33.514Z,3.03
2023-04-22T22:54:37.679Z,3.40
2023-04-22T22:57:40.826Z,2.58
2023-04-22T23:00:44.086Z,3.20
2023-04-22T23:03:48.486Z,3.65
2023-04-22T23:06:53.215Z,3.95
2023-04-22T23:09:56.396Z,3.75
2023-04-22T23:12:59.715Z,4.00
2023-04-22T23:16:02.924Z,3.50
2023-04-22T23:19:07.325Z,3.85
2023-04-22T23:22:12.464Z,3.95
2023-04-22T23:25:17.358Z,3.90
2023-04-22T23:28:21.012Z,4.15
2023-04-22T23:31:24.983Z,3.70
2023-04-22T23:34:29.154Z,3.67
2023-04-22T23:37:35.477Z,4.35
2023-04-22T23:40:38.804Z,4.18
2023-04-22T23:43:41.959Z,4.32
2023-04-22T23:46:45.417Z,3.90
2023-04-22T23:49:48.687Z,3.95
2023-04-22T23:52:53.263Z,4.38
2023-04-22T23:55:56.985Z,4.03
2023-04-22T23:59:00.749Z,3.80
